sensor_id;sensor_type;location;lat;lon;timestamp;pressure;altitude;pressure_sealevel;temperature;humidity
77939;BME280;67136;47.546;21.630;2023-02-27T00:02:19;100004.75;;;2.07;65.26
77939;BME280;67136;47.546;21.630;2023-02-27T00:05:41;99995.16;;;2.26;65.34
77939;BME280;67136;47.546;21.630;2023-02-27T00:08:46;100003.47;;;2.31;65.12
77939;BME280;67136;47.546;21.630;2023-02-27T00:11:51;100006.69;;;2.19;64.57
77939;BME280;67136;47.546;21.630;2023-02-27T00:14:54;100012.78;;;2.18;65.31
77939;BME280;67136;47.546;21.630;2023-02-27T00:17:57;100011.44;;;2.27;64.55
77939;BME280;67136;47.546;21.630;2023-02-27T00:21:01;100010.59;;;2.11;65.48
77939;BME280;67136;47.546;21.630;2023-02-27T00:24:03;100004.28;;;2.32;65.06
77939;BME280;67136;47.546;21.630;2023-02-27T00:27:06;100003.19;;;2.20;65.55
77939;BME280;67136;47.546;21.630;2023-02-27T00:30:13;100004.59;;;2.10;65.25
77939;BME280;67136;47.546;21.630;2023-02-27T00:33:17;99999.44;;;2.10;65.33
77939;BME280;67136;47.546;21.630;2023-02-27T00:36:19;100006.56;;;2.05;65.41
77939;BME280;67136;47.546;21.630;2023-02-27T00:39:31;100004.16;;;2.02;66.36
77939;BME280;67136;47.546;21.630;2023-02-27T00:42:34;100010.59;;;2.11;65.42
77939;BME280;67136;47.546;21.630;2023-02-27T00:45:37;99997.12;;;2.21;65.36
77939;BME280;67136;47.546;21.630;2023-02-27T00:48:47;100004.78;;;2.23;65.52
77939;BME280;67136;47.546;21.630;2023-02-27T00:51:55;100000.78;;;2.17;65.41
77939;BME280;67136;47.546;21.630;2023-02-27T00:54:59;99995.81;;;2.45;67.50
77939;BME280;67136;47.546;21.630;2023-02-27T00:58:02;99989.00;;;2.44;65.24
77939;BME280;67136;47.546;21.630;2023-02-27T01:01:05;100002.87;;;2.26;64.57
77939;BME280;67136;47.546;21.630;2023-02-27T01:04:08;100012.81;;;2.01;65.17
77939;BME280;67136;47.546;21.630;2023-02-27T01:07:10;100003.78;;;2.10;66.31
77939;BME280;67136;47.546;21.630;2023-02-27T01:10:14;100003.37;;;2.17;65.40
77939;BME280;67136;47.546;21.630;2023-02-27T01:13:19;100007.38;;;2.23;64.14
77939;BME280;67136;47.546;21.630;2023-02-27T01:16:22;100010.09;;;2.04;64.78
77939;BME280;67136;47.546;21.630;2023-02-27T01:19:25;100014.16;;;2.08;65.01
77939;BME280;67136;47.546;21.630;2023-02-27T01:22:28;100022.00;;;2.22;65.29
77939;BME280;67136;47.546;21.630;2023-02-27T01:25:31;100021.00;;;2.09;65.17
77939;BME280;67136;47.546;21.630;2023-02-27T01:28:33;100024.91;;;2.16;65.83
77939;BME280;67136;47.546;21.630;2023-02-27T01:31:36;100035.56;;;1.93;64.92
77939;BME280;67136;47.546;21.630;2023-02-27T01:34:39;100031.09;;;1.97;65.79
77939;BME280;67136;47.546;21.630;2023-02-27T01:37:46;100037.53;;;1.88;64.72
77939;BME280;67136;47.546;21.630;2023-02-27T01:40:48;100025.50;;;1.89;64.66
77939;BME280;67136;47.546;21.630;2023-02-27T01:44:30;100044.16;;;1.94;64.33
77939;BME280;67136;47.546;21.630;2023-02-27T01:47:33;100047.03;;;1.88;64.29
77939;BME280;67136;47.546;21.630;2023-02-27T01:50:38;100047.56;;;1.94;64.29
77939;BME280;67136;47.546;21.630;2023-02-27T01:53:48;100053.31;;;1.99;64.05
77939;BME280;67136;47.546;21.630;2023-02-27T01:56:54;100053.91;;;2.04;65.20
77939;BME280;67136;47.546;21.630;2023-02-27T01:59:58;100052.47;;;1.99;64.40
77939;BME280;67136;47.546;21.630;2023-02-27T02:06:27;100063.56;;;2.33;62.83
77939;BME280;67136;47.546;21.630;2023-02-27T02:09:36;100061.19;;;2.29;63.96
77939;BME280;67136;47.546;21.630;2023-02-27T02:12:42;100065.13;;;2.03;62.21
77939;BME280;67136;47.546;21.630;2023-02-27T02:16:12;100064.22;;;2.04;62.36
77939;BME280;67136;47.546;21.630;2023-02-27T02:30:45;100068.34;;;1.74;62.41
77939;BME280;67136;47.546;21.630;2023-02-27T02:40:54;100070.16;;;1.55;62.96
77939;BME280;67136;47.546;21.630;2023-02-27T02:44:22;100078.81;;;1.71;63.17
77939;BME280;67136;47.546;21.630;2023-02-27T02:51:03;100089.25;;;1.85;63.79
77939;BME280;67136;47.546;21.630;2023-02-27T02:54:19;100089.88;;;1.56;62.38
77939;BME280;67136;47.546;21.630;2023-02-27T02:57:29;100095.31;;;1.50;62.16
77939;BME280;67136;47.546;21.630;2023-02-27T03:00:45;100096.09;;;1.69;62.80
77939;BME280;67136;47.546;21.630;2023-02-27T03:04:03;100102.03;;;1.71;62.82
77939;BME280;67136;47.546;21.630;2023-02-27T03:07:18;100101.09;;;1.55;62.14
77939;BME280;67136;47.546;21.630;2023-02-27T03:13:59;100109.06;;;1.51;61.64
77939;BME280;67136;47.546;21.630;2023-02-27T03:17:16;100116.41;;;1.75;63.34
77939;BME280;67136;47.546;21.630;2023-02-27T03:20:24;100116.56;;;1.72;62.61
77939;BME280;67136;47.546;21.630;2023-02-27T03:23:41;100129.16;;;1.61;61.83
77939;BME280;67136;47.546;21.630;2023-02-27T03:26:49;100121.97;;;1.32;62.67
77939;BME280;67136;47.546;21.630;2023-02-27T03:29:57;100133.72;;;1.55;63.27
77939;BME280;67136;47.546;21.630;2023-02-27T03:33:12;100138.97;;;1.36;62.33
77939;BME280;67136;47.546;21.630;2023-02-27T03:46:28;100161.44;;;1.33;62.92
77939;BME280;67136;47.546;21.630;2023-02-27T03:49:31;100159.88;;;1.47;63.93
77939;BME280;67136;47.546;21.630;2023-02-27T03:52:34;100162.31;;;1.50;62.93
77939;BME280;67136;47.546;21.630;2023-02-27T03:55:43;100170.88;;;1.51;64.02
77939;BME280;67136;47.546;21.630;2023-02-27T03:58:47;100165.75;;;1.68;63.02
77939;BME280;67136;47.546;21.630;2023-02-27T04:01:53;100167.38;;;1.52;61.73
77939;BME280;67136;47.546;21.630;2023-02-27T04:04:57;100165.66;;;1.52;62.63
77939;BME280;67136;47.546;21.630;2023-02-27T04:08:14;100171.25;;;1.60;62.60
77939;BME280;67136;47.546;21.630;2023-02-27T04:28:42;100203.97;;;1.41;63.09
77939;BME280;67136;47.546;21.630;2023-02-27T04:34:59;100201.91;;;1.66;63.27
77939;BME280;67136;47.546;21.630;2023-02-27T04:38:17;100205.78;;;1.39;62.48
77939;BME280;67136;47.546;21.630;2023-02-27T04:41:29;100206.53;;;1.41;63.28
77939;BME280;67136;47.546;21.630;2023-02-27T04:44:35;100200.31;;;1.45;63.48
77939;BME280;67136;47.546;21.630;2023-02-27T04:47:46;100196.63;;;1.51;64.04
77939;BME280;67136;47.546;21.630;2023-02-27T04:50:57;100208.72;;;1.67;63.13
77939;BME280;67136;47.546;21.630;2023-02-27T04:54:07;100205.41;;;1.82;64.75
77939;BME280;67136;47.546;21.630;2023-02-27T04:57:17;100205.28;;;2.19;62.71
77939;BME280;67136;47.546;21.630;2023-02-27T05:00:22;100207.38;;;1.77;61.67
77939;BME280;67136;47.546;21.630;2023-02-27T05:03:33;100207.53;;;1.91;61.97
77939;BME280;67136;47.546;21.630;2023-02-27T05:06:38;100203.06;;;1.78;61.82
77939;BME280;67136;47.546;21.630;2023-02-27T05:09:48;100210.37;;;1.68;62.57
77939;BME280;67136;47.546;21.630;2023-02-27T05:12:57;100219.94;;;1.66;62.16
77939;BME280;67136;47.546;21.630;2023-02-27T05:16:18;100223.87;;;1.73;62.06
77939;BME280;67136;47.546;21.630;2023-02-27T05:19:31;100229.09;;;1.72;63.39
77939;BME280;67136;47.546;21.630;2023-02-27T05:22:49;100233.28;;;1.74;62.52
77939;BME280;67136;47.546;21.630;2023-02-27T05:25:59;100239.16;;;1.59;61.59
77939;BME280;67136;47.546;21.630;2023-02-27T05:29:24;100251.28;;;1.93;62.18
77939;BME280;67136;47.546;21.630;2023-02-27T05:35:49;100254.66;;;1.76;62.54
77939;BME280;67136;47.546;21.630;2023-02-27T05:38:58;100262.09;;;1.82;62.04
77939;BME280;67136;47.546;21.630;2023-02-27T05:42:09;100268.66;;;1.89;61.33
77939;BME280;67136;47.546;21.630;2023-02-27T05:45:17;100268.88;;;2.02;62.61
77939;BME280;67136;47.546;21.630;2023-02-27T05:48:27;100268.91;;;1.83;61.26
77939;BME280;67136;47.546;21.630;2023-02-27T05:51:33;100274.69;;;1.53;61.63
77939;BME280;67136;47.546;21.630;2023-02-27T05:57:55;100280.94;;;1.47;62.21
77939;BME280;67136;47.546;21.630;2023-02-27T06:01:05;100279.28;;;1.46;61.51
77939;BME280;67136;47.546;21.630;2023-02-27T06:04:08;100287.50;;;1.36;61.78
77939;BME280;67136;47.546;21.630;2023-02-27T06:07:12;100292.25;;;2.16;63.34
77939;BME280;67136;47.546;21.630;2023-02-27T06:10:18;100298.97;;;2.20;59.89
77939;BME280;67136;47.546;21.630;2023-02-27T06:13:21;100305.34;;;2.30;60.70
77939;BME280;67136;47.546;21.630;2023-02-27T06:16:25;100306.47;;;2.41;60.67
77939;BME280;67136;47.546;21.630;2023-02-27T06:19:28;100317.97;;;2.17;58.82
77939;BME280;67136;47.546;21.630;2023-02-27T06:22:31;100329.50;;;2.10;59.26
77939;BME280;67136;47.546;21.630;2023-02-27T06:25:34;100329.50;;;1.92;59.42
77939;BME280;67136;47.546;21.630;2023-02-27T06:28:37;100341.66;;;1.71;59.58
77939;BME280;67136;47.546;21.630;2023-02-27T06:31:39;100339.00;;;1.54;60.30
77939;BME280;67136;47.546;21.630;2023-02-27T06:34:42;100339.00;;;1.54;60.34
77939;BME280;67136;47.546;21.630;2023-02-27T06:37:47;100328.72;;;1.54;60.99
77939;BME280;67136;47.546;21.630;2023-02-27T06:40:54;100344.28;;;1.70;59.47
77939;BME280;67136;47.546;21.630;2023-02-27T06:43:57;100340.12;;;1.67;59.24
77939;BME280;67136;47.546;21.630;2023-02-27T06:47:00;100352.37;;;1.62;59.53
77939;BME280;67136;47.546;21.630;2023-02-27T06:50:08;100356.13;;;1.55;59.30
77939;BME280;67136;47.546;21.630;2023-02-27T06:53:12;100351.41;;;1.46;59.31
77939;BME280;67136;47.546;21.630;2023-02-27T06:56:15;100359.47;;;1.57;58.85
77939;BME280;67136;47.546;21.630;2023-02-27T06:59:17;100359.25;;;1.62;58.50
77939;BME280;67136;47.546;21.630;2023-02-27T07:02:20;100369.72;;;1.77;57.81
77939;BME280;67136;47.546;21.630;2023-02-27T07:05:25;100369.88;;;1.93;58.14
77939;BME280;67136;47.546;21.630;2023-02-27T07:08:27;100379.03;;;1.98;57.63
77939;BME280;67136;47.546;21.630;2023-02-27T07:11:30;100385.03;;;1.99;57.87
77939;BME280;67136;47.546;21.630;2023-02-27T07:14:33;100396.28;;;1.98;56.75
77939;BME280;67136;47.546;21.630;2023-02-27T07:17:38;100389.87;;;2.06;57.43
77939;BME280;67136;47.546;21.630;2023-02-27T07:20:40;100394.41;;;2.01;58.67
77939;BME280;67136;47.546;21.630;2023-02-27T07:23:44;100402.13;;;2.01;57.28
77939;BME280;67136;47.546;21.630;2023-02-27T07:26:46;100415.66;;;2.06;56.57
77939;BME280;67136;47.546;21.630;2023-02-27T07:29:49;100414.94;;;2.03;57.29
77939;BME280;67136;47.546;21.630;2023-02-27T07:32:52;100419.66;;;2.12;56.93
77939;BME280;67136;47.546;21.630;2023-02-27T07:35:55;100426.84;;;2.24;57.93
77939;BME280;67136;47.546;21.630;2023-02-27T07:38:57;100424.25;;;2.42;58.23
77939;BME280;67136;47.546;21.630;2023-02-27T07:42:01;100430.84;;;2.12;56.51
77939;BME280;67136;47.546;21.630;2023-02-27T07:45:07;100436.00;;;2.12;57.46
77939;BME280;67136;47.546;21.630;2023-02-27T07:48:12;100439.50;;;2.11;57.17
77939;BME280;67136;47.546;21.630;2023-02-27T07:51:15;100438.22;;;2.01;56.99
77939;BME280;67136;47.546;21.630;2023-02-27T07:54:20;100454.72;;;1.97;56.99
77939;BME280;67136;47.546;21.630;2023-02-27T07:57:25;100459.28;;;2.11;57.22
77939;BME280;67136;47.546;21.630;2023-02-27T08:00:28;100473.00;;;2.11;56.55
77939;BME280;67136;47.546;21.630;2023-02-27T08:03:31;100472.38;;;2.06;56.04
77939;BME280;67136;47.546;21.630;2023-02-27T08:06:33;100469.72;;;2.08;56.27
77939;BME280;67136;47.546;21.630;2023-02-27T08:09:36;100471.84;;;2.18;56.39
77939;BME280;67136;47.546;21.630;2023-02-27T08:12:39;100478.91;;;2.32;55.25
77939;BME280;67136;47.546;21.630;2023-02-27T08:15:42;100481.37;;;2.35;55.07
77939;BME280;67136;47.546;21.630;2023-02-27T08:18:44;100481.16;;;2.39;55.48
77939;BME280;67136;47.546;21.630;2023-02-27T08:21:47;100490.16;;;2.49;54.20
77939;BME280;67136;47.546;21.630;2023-02-27T08:24:52;100497.44;;;2.77;53.99
77939;BME280;67136;47.546;21.630;2023-02-27T08:27:55;100500.22;;;2.73;53.65
77939;BME280;67136;47.546;21.630;2023-02-27T08:30:58;100504.63;;;2.71;53.78
77939;BME280;67136;47.546;21.630;2023-02-27T08:34:03;100506.69;;;2.81;53.51
77939;BME280;67136;47.546;21.630;2023-02-27T08:37:11;100506.66;;;3.00;53.37
77939;BME280;67136;47.546;21.630;2023-02-27T08:40:15;100506.84;;;3.31;53.28
77939;BME280;67136;47.546;21.630;2023-02-27T08:43:22;100500.84;;;3.47;52.91
77939;BME280;67136;47.546;21.630;2023-02-27T08:46:27;100500.25;;;3.75;51.87
77939;BME280;67136;47.546;21.630;2023-02-27T08:49:30;100504.72;;;3.56;51.52
77939;BME280;67136;47.546;21.630;2023-02-27T08:52:33;100509.38;;;3.82;52.24
77939;BME280;67136;47.546;21.630;2023-02-27T08:55:36;100522.41;;;4.13;52.84
77939;BME280;67136;47.546;21.630;2023-02-27T08:58:39;100516.44;;;4.28;51.20
77939;BME280;67136;47.546;21.630;2023-02-27T09:01:46;100532.16;;;4.56;50.48
77939;BME280;67136;47.546;21.630;2023-02-27T09:04:49;100524.41;;;4.08;49.85
77939;BME280;67136;47.546;21.630;2023-02-27T09:07:51;100544.22;;;3.92;50.07
77939;BME280;67136;47.546;21.630;2023-02-27T09:10:55;100547.41;;;3.97;49.97
77939;BME280;67136;47.546;21.630;2023-02-27T09:13:58;100544.22;;;3.58;50.85
77939;BME280;67136;47.546;21.630;2023-02-27T09:17:01;100553.34;;;3.48;51.00
77939;BME280;67136;47.546;21.630;2023-02-27T09:20:08;100569.47;;;3.36;51.57
77939;BME280;67136;47.546;21.630;2023-02-27T09:23:12;100571.44;;;3.48;51.13
77939;BME280;67136;47.546;21.630;2023-02-27T09:26:14;100567.09;;;3.31;51.72
77939;BME280;67136;47.546;21.630;2023-02-27T09:29:21;100586.22;;;3.46;51.02
77939;BME280;67136;47.546;21.630;2023-02-27T09:32:25;100577.72;;;3.61;51.81
77939;BME280;67136;47.546;21.630;2023-02-27T09:35:28;100591.38;;;3.63;52.21
77939;BME280;67136;47.546;21.630;2023-02-27T09:38:36;100587.56;;;3.70;51.19
77939;BME280;67136;47.546;21.630;2023-02-27T09:42:04;100595.47;;;4.01;50.19
77939;BME280;67136;47.546;21.630;2023-02-27T09:45:21;100601.88;;;4.11;50.34
77939;BME280;67136;47.546;21.630;2023-02-27T09:52:46;100613.81;;;3.97;51.19
77939;BME280;67136;47.546;21.630;2023-02-27T09:55:56;100626.81;;;4.12;49.94
77939;BME280;67136;47.546;21.630;2023-02-27T10:16:19;100653.69;;;3.93;49.68
77939;BME280;67136;47.546;21.630;2023-02-27T10:19:32;100658.78;;;4.11;49.37
77939;BME280;67136;47.546;21.630;2023-02-27T10:22:47;100659.22;;;4.19;49.01
